sensor_id;sensor_type;location;lat;lon;timestamp;pressure;altitude;pressure_sealevel;temperature;humidity
44198;BME280;30157;55.512;37.764;2023-05-22T00:00:04;100681.94;;;9.34;84.47
44198;BME280;30157;55.512;37.764;2023-05-22T00:02:36;100683.75;;;9.40;83.89
44198;BME280;30157;55.512;37.764;2023-05-22T00:05:06;100683.72;;;9.38;83.65
44198;BME280;30157;55.512;37.764;2023-05-22T00:07:32;100668.03;;;9.29;83.74
44198;BME280;30157;55.512;37.764;2023-05-22T00:09:58;100669.63;;;9.19;84.07
44198;BME280;30157;55.512;37.764;2023-05-22T00:12:23;100606.66;;;8.64;84.53
44198;BME280;30157;55.512;37.764;2023-05-22T00:14:49;100626.56;;;8.68;84.85
44198;BME280;30157;55.512;37.764;2023-05-22T00:17:15;100623.00;;;8.61;85.17
44198;BME280;30157;55.512;37.764;2023-05-22T00:19:40;100662.09;;;8.78;85.28
44198;BME280;30157;55.512;37.764;2023-05-22T00:22:08;100665.69;;;8.88;85.71
44198;BME280;30157;55.512;37.764;2023-05-22T00:24:34;100670.19;;;8.98;85.83
44198;BME280;30157;55.512;37.764;2023-05-22T00:27:00;100651.09;;;8.91;85.61
44198;BME280;30157;55.512;37.764;2023-05-22T00:29:25;100649.34;;;8.90;85.54
44198;BME280;30157;55.512;37.764;2023-05-22T00:31:51;100660.72;;;9.00;85.25
44198;BME280;30157;55.512;37.764;2023-05-22T00:34:17;100615.38;;;8.69;85.34
44198;BME280;30157;55.512;37.764;2023-05-22T00:36:43;100542.09;;;8.18;85.20
44198;BME280;30157;55.512;37.764;2023-05-22T00:39:09;100662.31;;;8.92;85.56
44198;BME280;30157;55.512;37.764;2023-05-22T00:41:35;100671.84;;;8.95;85.38
44198;BME280;30157;55.512;37.764;2023-05-22T00:44:03;100600.47;;;8.54;85.70
44198;BME280;30157;55.512;37.764;2023-05-22T00:46:28;100637.03;;;8.76;85.41
44198;BME280;30157;55.512;37.764;2023-05-22T00:48:55;100667.44;;;8.87;85.28
44198;BME280;30157;55.512;37.764;2023-05-22T00:51:21;100592.53;;;8.45;85.19
44198;BME280;30157;55.512;37.764;2023-05-22T00:53:47;100657.78;;;8.79;85.19
44198;BME280;30157;55.512;37.764;2023-05-22T00:56:14;100642.03;;;8.63;85.33
44198;BME280;30157;55.512;37.764;2023-05-22T00:58:40;100655.03;;;8.69;85.28
44198;BME280;30157;55.512;37.764;2023-05-22T01:01:08;100651.47;;;8.61;85.28
44198;BME280;30157;55.512;37.764;2023-05-22T01:03:37;100657.53;;;8.62;85.53
44198;BME280;30157;55.512;37.764;2023-05-22T01:06:18;100654.88;;;8.58;85.53
44198;BME280;30157;55.512;37.764;2023-05-22T01:08:46;100625.22;;;8.39;85.53
44198;BME280;30157;55.512;37.764;2023-05-22T01:11:20;100662.56;;;8.52;85.87
44198;BME280;30157;55.512;37.764;2023-05-22T01:14:03;100669.41;;;8.50;85.95
44198;BME280;30157;55.512;37.764;2023-05-22T01:33:03;100645.22;;;8.48;85.75
44198;BME280;30157;55.512;37.764;2023-05-22T01:35:32;100646.84;;;8.45;85.60
44198;BME280;30157;55.512;37.764;2023-05-22T01:38:00;100651.22;;;8.46;85.25
44198;BME280;30157;55.512;37.764;2023-05-22T01:40:28;100570.31;;;8.04;85.30
44198;BME280;30157;55.512;37.764;2023-05-22T01:42:54;100661.75;;;8.55;85.17
44198;BME280;30157;55.512;37.764;2023-05-22T01:45:20;100651.13;;;8.43;85.07
44198;BME280;30157;55.512;37.764;2023-05-22T01:47:45;100668.56;;;8.51;85.51
44198;BME280;30157;55.512;37.764;2023-05-22T01:50:13;100671.97;;;8.49;85.62
44198;BME280;30157;55.512;37.764;2023-05-22T01:53:02;100685.63;;;8.41;85.73
44198;BME280;30157;55.512;37.764;2023-05-22T02:00:51;100688.09;;;8.37;85.27
44198;BME280;30157;55.512;37.764;2023-05-22T02:03:23;100684.69;;;8.39;85.12
44198;BME280;30157;55.512;37.764;2023-05-22T02:05:53;100669.94;;;8.32;85.21
44198;BME280;30157;55.512;37.764;2023-05-22T02:08:21;100695.00;;;8.36;85.42
44198;BME280;30157;55.512;37.764;2023-05-22T02:10:48;100637.38;;;7.96;85.42
44198;BME280;30157;55.512;37.764;2023-05-22T02:13:16;100634.75;;;7.93;85.61
44198;BME280;30157;55.512;37.764;2023-05-22T02:15:44;100670.53;;;8.19;86.14
44198;BME280;30157;55.512;37.764;2023-05-22T02:18:10;100634.94;;;8.04;85.97
44198;BME280;30157;55.512;37.764;2023-05-22T02:20:41;100693.53;;;8.49;85.91
44198;BME280;30157;55.512;37.764;2023-05-22T02:23:07;100680.56;;;8.48;85.76
44198;BME280;30157;55.512;37.764;2023-05-22T02:25:33;100696.47;;;8.69;85.58
44198;BME280;30157;55.512;37.764;2023-05-22T02:27:59;100682.81;;;8.78;85.41
44198;BME280;30157;55.512;37.764;2023-05-22T02:30:25;100621.22;;;8.57;85.16
44198;BME280;30157;55.512;37.764;2023-05-22T02:32:52;100698.88;;;9.14;84.72
44198;BME280;30157;55.512;37.764;2023-05-22T02:35:19;100600.66;;;8.66;84.23
44198;BME280;30157;55.512;37.764;2023-05-22T02:37:45;100672.09;;;9.10;84.14
44198;BME280;30157;55.512;37.764;2023-05-22T02:40:12;100702.59;;;9.31;84.04
44198;BME280;30157;55.512;37.764;2023-05-22T02:42:40;100684.44;;;9.30;83.65
44198;BME280;30157;55.512;37.764;2023-05-22T02:45:06;100700.16;;;9.42;83.43
44198;BME280;30157;55.512;37.764;2023-05-22T02:47:34;100681.06;;;9.34;83.56
44198;BME280;30157;55.512;37.764;2023-05-22T02:50:00;100698.50;;;9.46;83.56
44198;BME280;30157;55.512;37.764;2023-05-22T02:52:26;100703.81;;;9.56;83.28
44198;BME280;30157;55.512;37.764;2023-05-22T02:54:53;100683.03;;;9.52;83.55
44198;BME280;30157;55.512;37.764;2023-05-22T02:57:20;100619.53;;;9.19;83.28
44198;BME280;30157;55.512;37.764;2023-05-22T02:59:46;100704.94;;;9.75;83.00
44198;BME280;30157;55.512;37.764;2023-05-22T03:02:12;100633.56;;;9.33;83.06
44198;BME280;30157;55.512;37.764;2023-05-22T03:04:40;100653.63;;;9.50;83.14
44198;BME280;30157;55.512;37.764;2023-05-22T03:07:08;100701.59;;;9.86;83.23
44198;BME280;30157;55.512;37.764;2023-05-22T03:09:35;100695.63;;;9.91;83.05
44198;BME280;30157;55.512;37.764;2023-05-22T03:12:01;100647.06;;;9.77;82.92
44198;BME280;30157;55.512;37.764;2023-05-22T03:14:28;100653.22;;;9.88;82.84
44198;BME280;30157;55.512;37.764;2023-05-22T03:16:54;100648.16;;;9.99;82.86
44198;BME280;30157;55.512;37.764;2023-05-22T03:19:21;100703.91;;;10.36;82.67
44198;BME280;30157;55.512;37.764;2023-05-22T03:21:47;100689.22;;;10.37;82.70
44198;BME280;30157;55.512;37.764;2023-05-22T03:24:15;100683.25;;;10.46;82.70
44198;BME280;30157;55.512;37.764;2023-05-22T03:26:40;100696.38;;;10.61;82.81
44198;BME280;30157;55.512;37.764;2023-05-22T03:29:11;100700.75;;;10.65;82.74
44198;BME280;30157;55.512;37.764;2023-05-22T03:31:40;100657.22;;;10.36;82.59
44198;BME280;30157;55.512;37.764;2023-05-22T03:34:12;100712.91;;;10.74;82.64
44198;BME280;30157;55.512;37.764;2023-05-22T03:36:39;100670.34;;;10.52;82.84
44198;BME280;30157;55.512;37.764;2023-05-22T03:39:05;100705.19;;;10.82;82.72
44198;BME280;30157;55.512;37.764;2023-05-22T03:41:36;100703.50;;;10.85;83.10
44198;BME280;30157;55.512;37.764;2023-05-22T03:44:02;100664.41;;;10.64;83.26
44198;BME280;30157;55.512;37.764;2023-05-22T03:46:28;100713.94;;;10.90;83.56
44198;BME280;30157;55.512;37.764;2023-05-22T03:48:54;100652.28;;;10.64;84.08
44198;BME280;30157;55.512;37.764;2023-05-22T03:51:21;100691.44;;;10.90;84.81
44198;BME280;30157;55.512;37.764;2023-05-22T03:53:47;100698.44;;;11.02;84.63
44198;BME280;30157;55.512;37.764;2023-05-22T03:56:13;100694.16;;;11.10;84.77
44198;BME280;30157;55.512;37.764;2023-05-22T03:58:39;100679.44;;;11.09;84.86
44198;BME280;30157;55.512;37.764;2023-05-22T04:01:05;100696.88;;;11.24;84.88
44198;BME280;30157;55.512;37.764;2023-05-22T04:03:31;100706.41;;;11.29;84.94
44198;BME280;30157;55.512;37.764;2023-05-22T04:05:56;100688.19;;;11.24;85.35
44198;BME280;30157;55.512;37.764;2023-05-22T04:08:23;100693.44;;;11.29;85.31
44198;BME280;30157;55.512;37.764;2023-05-22T04:10:48;100642.16;;;11.01;85.56
44198;BME280;30157;55.512;37.764;2023-05-22T04:13:15;100604.75;;;10.74;85.87
44198;BME280;30157;55.512;37.764;2023-05-22T04:15:42;100696.03;;;11.32;86.64
44198;BME280;30157;55.512;37.764;2023-05-22T04:18:13;100623.88;;;10.86;86.76
44198;BME280;30157;55.512;37.764;2023-05-22T04:20:40;100641.22;;;10.90;87.08
44198;BME280;30157;55.512;37.764;2023-05-22T04:23:07;100694.28;;;11.24;87.29
44198;BME280;30157;55.512;37.764;2023-05-22T04:25:34;100693.38;;;11.21;88.10
44198;BME280;30157;55.512;37.764;2023-05-22T04:28:02;100695.09;;;11.20;88.42
44198;BME280;30157;55.512;37.764;2023-05-22T04:30:30;100688.16;;;11.15;88.95
44198;BME280;30157;55.512;37.764;2023-05-22T04:33:00;100697.72;;;11.23;89.26
44198;BME280;30157;55.512;37.764;2023-05-22T04:35:29;100700.31;;;11.25;89.39
44198;BME280;30157;55.512;37.764;2023-05-22T04:37:56;100704.59;;;11.17;89.53
44198;BME280;30157;55.512;37.764;2023-05-22T04:40:24;100665.47;;;10.90;89.56
44198;BME280;30157;55.512;37.764;2023-05-22T04:42:52;100712.41;;;11.15;89.72
44198;BME280;30157;55.512;37.764;2023-05-22T04:45:18;100708.03;;;11.11;89.86
44198;BME280;30157;55.512;37.764;2023-05-22T04:47:45;100715.84;;;11.13;89.97
44198;BME280;30157;55.512;37.764;2023-05-22T04:50:11;100714.94;;;11.10;90.30
44198;BME280;30157;55.512;37.764;2023-05-22T04:52:39;100713.22;;;11.11;90.57
44198;BME280;30157;55.512;37.764;2023-05-22T04:55:05;100672.34;;;10.85;90.92
44198;BME280;30157;55.512;37.764;2023-05-22T04:57:31;100706.28;;;11.08;91.18
44198;BME280;30157;55.512;37.764;2023-05-22T04:59:57;100699.34;;;11.07;91.55
44198;BME280;30157;55.512;37.764;2023-05-22T05:02:23;100707.16;;;11.10;91.79
44198;BME280;30157;55.512;37.764;2023-05-22T05:04:49;100719.34;;;11.18;91.98
44198;BME280;30157;55.512;37.764;2023-05-22T05:07:15;100715.03;;;11.21;92.01
44198;BME280;30157;55.512;37.764;2023-05-22T05:09:43;100648.97;;;10.87;92.31
44198;BME280;30157;55.512;37.764;2023-05-22T05:12:09;100714.16;;;11.22;92.56
44198;BME280;30157;55.512;37.764;2023-05-22T05:14:35;100702.00;;;11.18;92.97
44198;BME280;30157;55.512;37.764;2023-05-22T05:17:00;100652.41;;;10.83;93.58
44198;BME280;30157;55.512;37.764;2023-05-22T05:19:26;100714.13;;;11.15;93.74
44198;BME280;30157;55.512;37.764;2023-05-22T05:21:52;100664.50;;;10.82;94.08
44198;BME280;30157;55.512;37.764;2023-05-22T05:24:20;100720.19;;;11.17;94.31
44198;BME280;30157;55.512;37.764;2023-05-22T05:26:47;100670.59;;;10.83;94.60
44198;BME280;30157;55.512;37.764;2023-05-22T05:29:14;100722.72;;;11.09;95.14
44198;BME280;30157;55.512;37.764;2023-05-22T05:31:47;100721.88;;;11.08;95.38
44198;BME280;30157;55.512;37.764;2023-05-22T05:34:32;100725.31;;;11.09;95.42
44198;BME280;30157;55.512;37.764;2023-05-22T05:37:03;100714.91;;;11.04;95.73
44198;BME280;30157;55.512;37.764;2023-05-22T05:39:30;100665.34;;;10.80;95.66
44198;BME280;30157;55.512;37.764;2023-05-22T05:41:57;100705.41;;;11.08;95.46
44198;BME280;30157;55.512;37.764;2023-05-22T05:44:23;100715.84;;;11.14;95.78
44198;BME280;30157;55.512;37.764;2023-05-22T05:46:49;100731.50;;;11.20;95.79
44198;BME280;30157;55.512;37.764;2023-05-22T05:49:18;100733.19;;;11.18;95.88
44198;BME280;30157;55.512;37.764;2023-05-22T05:51:44;100733.16;;;11.12;96.22
44198;BME280;30157;55.512;37.764;2023-05-22T05:54:10;100732.31;;;11.16;96.36
44198;BME280;30157;55.512;37.764;2023-05-22T05:56:36;100697.50;;;10.91;96.54
44198;BME280;30157;55.512;37.764;2023-05-22T05:59:03;100728.88;;;11.19;96.55
44198;BME280;30157;55.512;37.764;2023-05-22T06:01:40;100712.38;;;11.14;96.65
44198;BME280;30157;55.512;37.764;2023-05-22T06:04:12;100728.97;;;11.33;96.97
44198;BME280;30157;55.512;37.764;2023-05-22T06:06:38;100737.63;;;11.35;97.12
44198;BME280;30157;55.512;37.764;2023-05-22T06:09:13;100686.28;;;10.97;97.13
44198;BME280;30157;55.512;37.764;2023-05-22T06:12:09;100677.59;;;10.93;97.53
44198;BME280;30157;55.512;37.764;2023-05-22T06:14:38;100742.81;;;11.33;97.63
44198;BME280;30157;55.512;37.764;2023-05-22T06:17:07;100706.50;;;11.39;97.71
44198;BME280;30157;55.512;37.764;2023-05-22T06:19:35;100697.88;;;11.50;97.55
44198;BME280;30157;55.512;37.764;2023-05-22T06:22:01;100708.31;;;11.57;97.69
44198;BME280;30157;55.512;37.764;2023-05-22T06:24:28;100700.50;;;11.56;97.89
44198;BME280;30157;55.512;37.764;2023-05-22T06:26:56;100613.63;;;11.10;97.91
44198;BME280;30157;55.512;37.764;2023-05-22T06:29:22;100724.84;;;11.67;98.15
44198;BME280;30157;55.512;37.764;2023-05-22T06:31:50;100706.53;;;11.47;98.23
44198;BME280;30157;55.512;37.764;2023-05-22T06:34:18;100706.56;;;11.55;98.53
44198;BME280;30157;55.512;37.764;2023-05-22T06:36:44;100659.66;;;11.35;98.76
44198;BME280;30157;55.512;37.764;2023-05-22T06:39:11;100707.56;;;11.82;98.82
44198;BME280;30157;55.512;37.764;2023-05-22T06:42:00;100647.69;;;11.71;98.83
44198;BME280;30157;55.512;37.764;2023-05-22T06:44:34;100660.84;;;11.97;98.75
44198;BME280;30157;55.512;37.764;2023-05-22T06:47:03;100684.34;;;12.39;98.31
44198;BME280;30157;55.512;37.764;2023-05-22T06:49:30;100693.03;;;12.58;97.67
44198;BME280;30157;55.512;37.764;2023-05-22T06:51:56;100693.94;;;12.83;97.23
44198;BME280;30157;55.512;37.764;2023-05-22T06:54:22;100707.81;;;13.02;96.75
44198;BME280;30157;55.512;37.764;2023-05-22T06:56:54;100703.47;;;13.17;96.54
44198;BME280;30157;55.512;37.764;2023-05-22T06:59:23;100695.59;;;13.32;96.39
44198;BME280;30157;55.512;37.764;2023-05-22T07:01:58;100706.00;;;13.55;96.29
44198;BME280;30157;55.512;37.764;2023-05-22T07:04:38;100678.16;;;13.60;95.79
44198;BME280;30157;55.512;37.764;2023-05-22T07:07:11;100704.19;;;13.77;95.24
44198;BME280;30157;55.512;37.764;2023-05-22T07:09:37;100712.00;;;13.85;94.82
44198;BME280;30157;55.512;37.764;2023-05-22T07:12:04;100662.50;;;13.64;94.38
44198;BME280;30157;55.512;37.764;2023-05-22T07:14:30;100662.47;;;13.77;93.99
44198;BME280;30157;55.512;37.764;2023-05-22T07:16:56;100702.31;;;14.09;93.22
44198;BME280;30157;55.512;37.764;2023-05-22T07:19:27;100713.50;;;14.28;93.06
44198;BME280;30157;55.512;37.764;2023-05-22T07:21:55;100709.94;;;14.44;92.71
44198;BME280;30157;55.512;37.764;2023-05-22T07:24:21;100655.19;;;14.29;92.82
44198;BME280;30157;55.512;37.764;2023-05-22T07:26:48;100719.38;;;14.72;92.02
44198;BME280;30157;55.512;37.764;2023-05-22T07:29:15;100705.38;;;14.79;91.61
44198;BME280;30157;55.512;37.764;2023-05-22T07:31:43;100638.44;;;14.56;91.09
44198;BME280;30157;55.512;37.764;2023-05-22T07:34:10;100655.50;;;15.01;90.30
44198;BME280;30157;55.512;37.764;2023-05-22T07:36:36;100708.19;;;15.49;89.29
44198;BME280;30157;55.512;37.764;2023-05-22T07:39:04;100696.78;;;15.56;89.01
44198;BME280;30157;55.512;37.764;2023-05-22T07:41:33;100697.56;;;15.65;88.46
44198;BME280;30157;55.512;37.764;2023-05-22T07:43:59;100702.72;;;15.69;88.56
44198;BME280;30157;55.512;37.764;2023-05-22T07:46:30;100719.28;;;15.71;88.33
44198;BME280;30157;55.512;37.764;2023-05-22T07:49:05;100654.25;;;15.40;88.10
44198;BME280;30157;55.512;37.764;2023-05-22T07:51:32;100664.44;;;15.62;88.00
44198;BME280;30157;55.512;37.764;2023-05-22T07:53:57;100719.97;;;15.89;87.28
44198;BME280;30157;55.512;37.764;2023-05-22T07:56:23;100693.78;;;15.90;87.25
44198;BME280;30157;55.512;37.764;2023-05-22T07:58:50;100703.19;;;16.05;86.96
44198;BME280;30157;55.512;37.764;2023-05-22T08:01:18;100703.13;;;16.08;86.72
44198;BME280;30157;55.512;37.764;2023-05-22T08:03:44;100702.25;;;16.09;85.98
44198;BME280;30157;55.512;37.764;2023-05-22T08:06:10;100703.13;;;16.11;85.75
44198;BME280;30157;55.512;37.764;2023-05-22T08:08:35;100711.81;;;16.13;85.06
44198;BME280;30157;55.512;37.764;2023-05-22T08:11:01;100710.06;;;16.12;85.39
44198;BME280;30157;55.512;37.764;2023-05-22T08:13:27;100694.41;;;16.09;85.57
44198;BME280;30157;55.512;37.764;2023-05-22T08:15:53;100717.03;;;16.13;85.12
44198;BME280;30157;55.512;37.764;2023-05-22T08:18:19;100709.25;;;16.09;84.98
44198;BME280;30157;55.512;37.764;2023-05-22T08:20:45;100647.78;;;15.69;85.31
44198;BME280;30157;55.512;37.764;2023-05-22T08:23:12;100715.38;;;16.08;85.53
44198;BME280;30157;55.512;37.764;2023-05-22T08:25:37;100689.09;;;16.14;85.69
44198;BME280;30157;55.512;37.764;2023-05-22T08:28:03;100692.34;;;16.33;84.82
44198;BME280;30157;55.512;37.764;2023-05-22T08:30:29;100693.09;;;16.38;84.64
44198;BME280;30157;55.512;37.764;2023-05-22T08:32:55;100693.47;;;16.71;84.34
44198;BME280;30157;55.512;37.764;2023-05-22T08:35:21;100546.63;;;16.26;83.28
44198;BME280;30157;55.512;37.764;2023-05-22T08:37:47;100683.53;;;17.40;81.76
44198;BME280;30157;55.512;37.764;2023-05-22T08:40:13;100685.63;;;17.68;81.30
44198;BME280;30157;55.512;37.764;2023-05-22T08:42:40;100678.16;;;17.93;79.88
44198;BME280;30157;55.512;37.764;2023-05-22T08:45:06;100660.22;;;18.50;76.67
44198;BME280;30157;55.512;37.764;2023-05-22T08:47:33;100680.00;;;19.34;73.54
44198;BME280;30157;55.512;37.764;2023-05-22T08:50:03;100641.53;;;19.60;70.84
44198;BME280;30157;55.512;37.764;2023-05-22T08:52:46;100680.34;;;20.14;70.56
44198;BME280;30157;55.512;37.764;2023-05-22T08:55:15;100659.25;;;20.43;69.96
44198;BME280;30157;55.512;37.764;2023-05-22T08:57:41;100679.00;;;20.29;68.94
44198;BME280;30157;55.512;37.764;2023-05-22T09:00:07;100670.94;;;20.34;69.02
44198;BME280;30157;55.512;37.764;2023-05-22T09:02:37;100675.34;;;20.34;68.88
44198;BME280;30157;55.512;37.764;2023-05-22T09:05:07;100661.06;;;20.12;67.87
44198;BME280;30157;55.512;37.764;2023-05-22T09:07:34;100683.03;;;20.13;68.05
44198;BME280;30157;55.512;37.764;2023-05-22T09:10:00;100677.69;;;20.14;67.85
44198;BME280;30157;55.512;37.764;2023-05-22T09:12:31;100674.84;;;19.92;67.26
44198;BME280;30157;55.512;37.764;2023-05-22T09:15:07;100645.78;;;19.66;67.71
44198;BME280;30157;55.512;37.764;2023-05-22T09:17:33;100674.50;;;19.73;67.62
44198;BME280;30157;55.512;37.764;2023-05-22T09:19:58;100623.88;;;19.34;67.59
44198;BME280;30157;55.512;37.764;2023-05-22T09:22:34;100622.78;;;19.09;68.08
44198;BME280;30157;55.512;37.764;2023-05-22T09:25:03;100676.25;;;19.43;68.41
44198;BME280;30157;55.512;37.764;2023-05-22T09:27:29;100677.97;;;19.44;68.53
44198;BME280;30157;55.512;37.764;2023-05-22T09:29:56;100665.78;;;19.41;67.58
44198;BME280;30157;55.512;37.764;2023-05-22T09:32:22;100672.88;;;19.38;67.68
44198;BME280;30157;55.512;37.764;2023-05-22T09:34:49;100676.75;;;19.24;67.70
44198;BME280;30157;55.512;37.764;2023-05-22T09:37:15;100679.03;;;19.05;67.64
44198;BME280;30157;55.512;37.764;2023-05-22T09:39:46;100681.84;;;18.97;68.34
44198;BME280;30157;55.512;37.764;2023-05-22T09:42:15;100662.78;;;18.88;68.13
44198;BME280;30157;55.512;37.764;2023-05-22T09:44:47;100679.59;;;18.80;68.34
44198;BME280;30157;55.512;37.764;2023-05-22T09:47:14;100626.25;;;18.41;69.03
44198;BME280;30157;55.512;37.764;2023-05-22T09:49:43;100676.34;;;18.71;68.72
44198;BME280;30157;55.512;37.764;2023-05-22T09:52:10;100622.47;;;18.89;67.86
44198;BME280;30157;55.512;37.764;2023-05-22T09:54:54;100662.00;;;19.50;66.78
44198;BME280;30157;55.512;37.764;2023-05-22T09:57:23;100671.88;;;19.73;66.15
44198;BME280;30157;55.512;37.764;2023-05-22T09:59:51;100673.00;;;19.64;66.36
44198;BME280;30157;55.512;37.764;2023-05-22T10:02:24;100664.09;;;19.39;67.37
44198;BME280;30157;55.512;37.764;2023-05-22T10:04:51;100631.41;;;19.14;67.60
44198;BME280;30157;55.512;37.764;2023-05-22T10:07:23;100626.69;;;18.94;68.92
44198;BME280;30157;55.512;37.764;2023-05-22T10:09:51;100664.59;;;19.20;68.84
44198;BME280;30157;55.512;37.764;2023-05-22T10:12:20;100667.72;;;19.35;68.61
44198;BME280;30157;55.512;37.764;2023-05-22T10:14:47;100666.47;;;19.46;67.35
44198;BME280;30157;55.512;37.764;2023-05-22T10:17:14;100597.63;;;18.99;67.19
44198;BME280;30157;55.512;37.764;2023-05-22T10:19:41;100609.03;;;19.00;67.63
44198;BME280;30157;55.512;37.764;2023-05-22T10:22:10;100652.13;;;19.27;67.53
44198;BME280;30157;55.512;37.764;2023-05-22T10:24:38;100641.00;;;19.17;67.65
44198;BME280;30157;55.512;37.764;2023-05-22T10:27:05;100644.94;;;19.34;67.39
44198;BME280;30157;55.512;37.764;2023-05-22T10:29:37;100591.72;;;19.22;67.52
44198;BME280;30157;55.512;37.764;2023-05-22T10:32:36;100639.56;;;19.98;66.32
44198;BME280;30157;55.512;37.764;2023-05-22T10:35:16;100650.50;;;20.14;65.23
44198;BME280;30157;55.512;37.764;2023-05-22T10:40:32;100644.28;;;20.15;65.16
44198;BME280;30157;55.512;37.764;2023-05-22T10:43:01;100649.03;;;20.32;64.65
44198;BME280;30157;55.512;37.764;2023-05-22T10:45:28;100642.22;;;20.53;64.04
44198;BME280;30157;55.512;37.764;2023-05-22T10:48:04;100595.59;;;20.54;63.97
44198;BME280;30157;55.512;37.764;2023-05-22T10:50:30;100623.00;;;21.02;63.20
44198;BME280;30157;55.512;37.764;2023-05-22T10:53:21;100639.69;;;21.27;62.36
44198;BME280;30157;55.512;37.764;2023-05-22T10:55:49;100639.50;;;21.32;61.74
44198;BME280;30157;55.512;37.764;2023-05-22T10:58:16;100643.47;;;21.44;62.37
44198;BME280;30157;55.512;37.764;2023-05-22T11:00:43;100613.28;;;21.51;61.94
44198;BME280;30157;55.512;37.764;2023-05-22T11:03:09;100585.03;;;21.29;60.75
44198;BME280;30157;55.512;37.764;2023-05-22T11:05:36;100632.16;;;21.40;61.56
44198;BME280;30157;55.512;37.764;2023-05-22T11:10:54;100632.31;;;22.29;60.17
44198;BME280;30157;55.512;37.764;2023-05-22T11:13:23;100633.09;;;21.87;60.08
44198;BME280;30157;55.512;37.764;2023-05-22T11:15:50;100586.06;;;21.73;59.37
44198;BME280;30157;55.512;37.764;2023-05-22T11:18:18;100570.09;;;21.98;59.09
44198;BME280;30157;55.512;37.764;2023-05-22T11:20:45;100617.00;;;22.80;58.14
44198;BME280;30157;55.512;37.764;2023-05-22T11:23:11;100576.63;;;22.75;57.35
44198;BME280;30157;55.512;37.764;2023-05-22T11:25:39;100618.09;;;23.15;57.05
44198;BME280;30157;55.512;37.764;2023-05-22T11:28:06;100602.38;;;22.92;57.30
44198;BME280;30157;55.512;37.764;2023-05-22T11:30:32;100613.28;;;23.25;56.22
44198;BME280;30157;55.512;37.764;2023-05-22T11:33:00;100575.38;;;24.36;54.18
44198;BME280;30157;55.512;37.764;2023-05-22T11:35:27;100615.78;;;25.11;52.13
44198;BME280;30157;55.512;37.764;2023-05-22T11:37:54;100608.78;;;25.60;51.40
44198;BME280;30157;55.512;37.764;2023-05-22T11:40:22;100602.06;;;26.16;50.09
44198;BME280;30157;55.512;37.764;2023-05-22T11:42:52;100598.66;;;25.82;50.78
44198;BME280;30157;55.512;37.764;2023-05-22T11:45:18;100597.88;;;26.12;49.43
44198;BME280;30157;55.512;37.764;2023-05-22T11:47:44;100592.53;;;26.28;49.66
44198;BME280;30157;55.512;37.764;2023-05-22T11:50:11;100566.53;;;26.48;48.64
44198;BME280;30157;55.512;37.764;2023-05-22T11:52:41;100589.38;;;26.66;48.21
44198;BME280;30157;55.512;37.764;2023-05-22T11:55:08;100580.63;;;26.80;47.80
44198;BME280;30157;55.512;37.764;2023-05-22T11:57:35;100572.81;;;26.47;47.80
44198;BME280;30157;55.512;37.764;2023-05-22T12:00:05;100587.13;;;25.98;49.54
44198;BME280;30157;55.512;37.764;2023-05-22T12:02:48;100574.88;;;25.79;47.68
44198;BME280;30157;55.512;37.764;2023-05-22T12:05:14;100563.41;;;26.11;47.06
44198;BME280;30157;55.512;37.764;2023-05-22T12:07:41;100580.69;;;26.02;46.34
44198;BME280;30157;55.512;37.764;2023-05-22T12:10:08;100503.72;;;25.05;47.47
44198;BME280;30157;55.512;37.764;2023-05-22T12:12:33;100524.53;;;25.46;47.82
44198;BME280;30157;55.512;37.764;2023-05-22T12:14:59;100566.50;;;26.03;46.74
44198;BME280;30157;55.512;37.764;2023-05-22T12:17:27;100549.28;;;25.78;44.48
44198;BME280;30157;55.512;37.764;2023-05-22T12:19:53;100559.56;;;25.53;46.19
44198;BME280;30157;55.512;37.764;2023-05-22T12:22:18;100545.53;;;25.17;47.05
44198;BME280;30157;55.512;37.764;2023-05-22T12:24:44;100507.22;;;25.05;47.07
44198;BME280;30157;55.512;37.764;2023-05-22T12:27:11;100547.47;;;25.13;47.55
44198;BME280;30157;55.512;37.764;2023-05-22T12:29:37;100545.41;;;24.52;48.47
44198;BME280;30157;55.512;37.764;2023-05-22T12:32:07;100549.84;;;24.16;49.72
44198;BME280;30157;55.512;37.764;2023-05-22T12:34:42;100516.16;;;23.81;49.61
44198;BME280;30157;55.512;37.764;2023-05-22T12:37:24;100543.41;;;23.66;50.24
44198;BME280;30157;55.512;37.764;2023-05-22T12:39:57;100532.81;;;23.09;51.63
44198;BME280;30157;55.512;37.764;2023-05-22T12:42:24;100521.19;;;23.11;52.70
44198;BME280;30157;55.512;37.764;2023-05-22T12:44:54;100509.19;;;23.04;52.28
44198;BME280;30157;55.512;37.764;2023-05-22T12:47:22;100532.53;;;23.15;51.95
44198;BME280;30157;55.512;37.764;2023-05-22T12:49:48;100532.84;;;23.07;52.31
44198;BME280;30157;55.512;37.764;2023-05-22T12:52:14;100520.66;;;22.84;51.63
44198;BME280;30157;55.512;37.764;2023-05-22T12:54:40;100525.13;;;22.84;51.86
44198;BME280;30157;55.512;37.764;2023-05-22T12:57:05;100525.38;;;22.77;50.79
44198;BME280;30157;55.512;37.764;2023-05-22T12:59:32;100480.31;;;22.39;51.58
44198;BME280;30157;55.512;37.764;2023-05-22T13:01:58;100511.38;;;22.55;50.82
44198;BME280;30157;55.512;37.764;2023-05-22T13:04:28;100515.06;;;22.51;52.00
44198;BME280;30157;55.512;37.764;2023-05-22T13:06:54;100527.38;;;22.52;52.71
44198;BME280;30157;55.512;37.764;2023-05-22T13:09:20;100520.91;;;22.38;52.85
44198;BME280;30157;55.512;37.764;2023-05-22T13:11:46;100489.06;;;22.19;52.40
44198;BME280;30157;55.512;37.764;2023-05-22T13:14:15;100460.72;;;22.02;52.52